createdAt,value
2022-08-17T00:00:43.447Z,96983.06
2022-08-17T00:03:22.284Z,96983.13
2022-08-17T00:05:53.061Z,96976.31
2022-08-17T00:08:27.322Z,96976.88
2022-08-17T00:10:56.229Z,96969.38
2022-08-17T00:13:33.052Z,96974.09
2022-08-17T00:16:07.418Z,96973.19
2022-08-17T00:19:02.079Z,96971.25
2022-08-17T00:22:30.934Z,96975.66
2022-08-17T00:24:20.673Z,96969.78
2022-08-17T00:26:51.804Z,96975.66
2022-08-17T00:29:20.342Z,96975.50
2022-08-17T00:31:50.871Z,96969.72
2022-08-17T00:34:19.006Z,96967.59
2022-08-17T00:36:47.020Z,96971.66
2022-08-17T00:39:15.095Z,96974.16
2022-08-17T00:41:43.081Z,96972.44
2022-08-17T00:44:11.794Z,96969.34
2022-08-17T00:46:44.306Z,96966.44
2022-08-17T00:49:14.956Z,96964.91
2022-08-17T00:51:53.240Z,96964.94
2022-08-17T00:54:42.048Z,96965.34
2022-08-17T00:57:16.478Z,96962.06
2022-08-17T01:00:01.956Z,96963.84
2022-08-17T01:02:41.202Z,96958.69
2022-08-17T01:05:25.349Z,96971.16
2022-08-17T01:07:53.853Z,96972.53
2022-08-17T01:11:00.084Z,96964.03
2022-08-17T01:13:21.446Z,96962.97
2022-08-17T01:16:16.503Z,96959.22
2022-08-17T01:18:46.863Z,96953.72
2022-08-17T01:21:42.069Z,96947.81
2022-08-17T01:24:12.847Z,96949.66
2022-08-17T01:26:45.201Z,96966.72
2022-08-17T01:29:14.255Z,96965.31
2022-08-17T01:31:51.334Z,96973.78
2022-08-17T01:34:21.969Z,96955.75
2022-08-17T01:36:50.962Z,96970.88
2022-08-17T01:39:22.656Z,96979.81
2022-08-17T01:41:54.494Z,96969.09
2022-08-17T01:44:23.262Z,96980.28
2022-08-17T01:46:51.353Z,96977.56
2022-08-17T01:49:20.474Z,96979.41
2022-08-17T01:51:51.209Z,96978.63
2022-08-17T01:54:20.279Z,96982.22
2022-08-17T01:56:51.745Z,96991.03
2022-08-17T01:59:22.215Z,96986.13
2022-08-17T02:01:53.210Z,96994.38
2022-08-17T02:04:21.423Z,96987.63
2022-08-17T02:06:53.573Z,96989.31
2022-08-17T02:09:25.369Z,96987.50
2022-08-17T02:11:56.339Z,96996.44
2022-08-17T02:14:25.573Z,96990.41
2022-08-17T02:16:56.035Z,96995.28
2022-08-17T02:19:24.145Z,96997.59
2022-08-17T02:21:54.046Z,96997.16
2022-08-17T02:24:58.461Z,96990.31
2022-08-17T02:27:13.968Z,96997.13
2022-08-17T02:29:42.089Z,96998.06
2022-08-17T02:32:28.061Z,97007.63
2022-08-17T02:35:03.052Z,97004.50
2022-08-17T02:37:34.043Z,97008.69
2022-08-17T02:40:02.531Z,97011.56
2022-08-17T02:42:36.819Z,97008.59
2022-08-17T02:45:10.865Z,97008.72
2022-08-17T02:47:41.815Z,97013.66
2022-08-17T02:50:14.367Z,97021.34
2022-08-17T02:52:51.494Z,97013.75
2022-08-17T02:55:34.369Z,97015.25
2022-08-17T02:58:02.636Z,97015.06
2022-08-17T03:00:39.239Z,97019.88
2022-08-17T03:03:07.795Z,97021.75
2022-08-17T03:05:37.549Z,97017.91
2022-08-17T03:08:11.680Z,97026.31
2022-08-17T03:10:45.186Z,97024.84
2022-08-17T03:13:14.550Z,97019.41
2022-08-17T03:15:44.675Z,97039.66
2022-08-17T03:18:19.095Z,97039.78
2022-08-17T03:20:58.296Z,97040.53
2022-08-17T03:23:27.533Z,97040.41
2022-08-17T03:25:58.084Z,97038.50
2022-08-17T03:28:29.336Z,97043.81
2022-08-17T03:30:57.357Z,97045.34
2022-08-17T03:33:25.423Z,97054.38
2022-08-17T03:35:53.544Z,97052.03
2022-08-17T03:38:21.728Z,97054.03
2022-08-17T03:40:58.897Z,97057.72
2022-08-17T03:43:30.995Z,97067.97
2022-08-17T03:46:00.217Z,97067.88
2022-08-17T03:48:28.723Z,97073.84
2022-08-17T03:50:57.822Z,97078.53
2022-08-17T03:53:25.878Z,97085.16
2022-08-17T03:55:53.968Z,97090.09
2022-08-17T03:58:22.316Z,97085.88
2022-08-17T04:00:51.231Z,97085.88
2022-08-17T04:03:19.312Z,97094.94
2022-08-17T04:05:47.438Z,97095.84
2022-08-17T04:08:20.757Z,97097.06
2022-08-17T04:10:48.907Z,97095.94
2022-08-17T04:13:24.252Z,97100.16
2022-08-17T04:15:54.157Z,97101.41
2022-08-17T04:18:22.236Z,97105.72
2022-08-17T04:20:50.305Z,97098.75
2022-08-17T04:23:19.884Z,97098.81
2022-08-17T04:25:52.356Z,97107.34
2022-08-17T04:28:21.418Z,97113.53
2022-08-17T04:30:52.353Z,97109.59
2022-08-17T04:33:22.769Z,97118.59
2022-08-17T04:35:53.309Z,97116.41
2022-08-17T04:38:24.018Z,97126.16
2022-08-17T04:40:52.784Z,97128.91
2022-08-17T04:43:23.236Z,97126.91
2022-08-17T04:45:56.253Z,97131.13
2022-08-17T04:48:35.625Z,97126.41
2022-08-17T04:51:20.386Z,97136.88
2022-08-17T04:53:54.665Z,97132.34
2022-08-17T04:56:24.527Z,97136.84
2022-08-17T04:58:57.042Z,97139.28
2022-08-17T05:01:29.521Z,97143.75
2022-08-17T05:04:32.972Z,97139.47
2022-08-17T05:06:51.429Z,97153.28
2022-08-17T05:09:19.608Z,97147.72
2022-08-17T05:11:49.999Z,97160.84
2022-08-17T05:14:20.727Z,97163.50
2022-08-17T05:16:55.330Z,97165.72
2022-08-17T05:19:23.383Z,97165.25
2022-08-17T05:21:54.247Z,97168.88
2022-08-17T05:24:39.137Z,97168.81
2022-08-17T05:27:10.353Z,97179.97
2022-08-17T05:29:47.730Z,97176.47
2022-08-17T05:32:38.769Z,97184.38
2022-08-17T05:35:07.314Z,97184.84
2022-08-17T05:37:35.359Z,97184.03
2022-08-17T05:40:03.543Z,97194.75
2022-08-17T05:42:34.506Z,97196.19
2022-08-17T05:45:05.588Z,97191.00
2022-08-17T05:47:33.802Z,97200.31
2022-08-17T05:50:02.520Z,97201.16
2022-08-17T05:52:49.234Z,97197.50
2022-08-17T05:55:23.438Z,97203.03
2022-08-17T05:57:54.110Z,97207.56
2022-08-17T06:00:30.568Z,97210.41
2022-08-17T06:03:20.769Z,97218.31
2022-08-17T06:06:15.919Z,97226.13
2022-08-17T06:08:58.182Z,97218.13
2022-08-17T06:11:46.419Z,97224.47
2022-08-17T06:14:32.268Z,97233.56
2022-08-17T06:17:06.943Z,97235.59
2022-08-17T06:19:57.417Z,97228.75
2022-08-17T06:22:29.403Z,97231.75
2022-08-17T06:24:57.432Z,97240.47
2022-08-17T06:28:03.529Z,97246.22
2022-08-17T06:30:57.808Z,97245.44
2022-08-17T06:33:37.086Z,97242.22
2022-08-17T06:36:23.323Z,97251.34
2022-08-17T06:39:13.920Z,97245.16
2022-08-17T06:42:10.815Z,97255.31
2022-08-17T06:45:15.727Z,97263.09
2022-08-17T06:48:09.622Z,97276.69
2022-08-17T06:50:42.579Z,97267.38
2022-08-17T06:53:32.394Z,97277.16
2022-08-17T06:56:07.310Z,97279.00
2022-08-17T06:58:36.687Z,97271.69
2022-08-17T07:01:18.913Z,97278.13
2022-08-17T07:03:46.978Z,97285.09
2022-08-17T07:06:25.093Z,97287.13
2022-08-17T07:09:04.504Z,97284.44
2022-08-17T07:11:40.183Z,97287.28
2022-08-17T07:14:34.544Z,97290.56
2022-08-17T07:17:10.338Z,97296.47
2022-08-17T07:19:40.642Z,97298.03
2022-08-17T07:22:50.591Z,97304.25
2022-08-17T07:25:23.127Z,97309.41
2022-08-17T07:27:54.097Z,97316.16
2022-08-17T07:30:28.448Z,97315.56
2022-08-17T07:33:13.454Z,97318.34
2022-08-17T07:35:45.906Z,97321.19
2022-08-17T07:38:25.259Z,97325.13
2022-08-17T07:40:57.347Z,97330.88
2022-08-17T07:43:29.736Z,97338.41
2022-08-17T07:46:20.521Z,97338.56
2022-08-17T07:48:59.302Z,97342.66
2022-08-17T07:51:29.530Z,97339.63
2022-08-17T07:54:14.162Z,97345.66
2022-08-17T07:56:49.785Z,97341.59
2022-08-17T07:59:23.060Z,97347.03
2022-08-17T08:01:57.986Z,97348.81
2022-08-17T08:07:35.397Z,97349.25
2022-08-17T08:10:16.543Z,97341.25
2022-08-17T08:12:46.454Z,97345.50
2022-08-17T08:15:24.995Z,97344.91
2022-08-17T08:17:59.714Z,97348.25
2022-08-17T08:20:53.265Z,97348.69
2022-08-17T08:23:32.272Z,97351.28
2022-08-17T08:26:18.978Z,97351.56
2022-08-17T08:29:07.329Z,97356.69
2022-08-17T08:31:57.797Z,97355.63
2022-08-17T08:35:02.672Z,97366.03
2022-08-17T08:37:42.016Z,97364.22
2022-08-17T08:40:31.769Z,97368.84
2022-08-17T08:43:17.864Z,97373.31
2022-08-17T08:46:10.771Z,97375.28
2022-08-17T08:49:59.007Z,97375.13
2022-08-17T08:52:42.144Z,97379.06
2022-08-17T08:55:25.266Z,97379.06
2022-08-17T08:58:08.792Z,97395.72
2022-08-17T09:01:03.217Z,97391.69
2022-08-17T09:04:18.317Z,97394.00
2022-08-17T09:07:18.382Z,97402.59
2022-08-17T09:09:53.367Z,97401.03
2022-08-17T09:12:42.779Z,97397.88
2022-08-17T09:15:24.214Z,97402.13
2022-08-17T09:19:02.745Z,97405.91
2022-08-17T09:20:58.207Z,97404.06
2022-08-17T09:23:40.270Z,97416.56
2022-08-17T09:26:11.383Z,97410.19
2022-08-17T09:28:43.062Z,97421.25
2022-08-17T09:31:15.994Z,97423.03
2022-08-17T09:33:48.326Z,97421.66
2022-08-17T09:36:27.081Z,97421.28
2022-08-17T09:39:10.035Z,97426.97
2022-08-17T09:41:48.959Z,97428.31
2022-08-17T09:44:37.083Z,97430.88
2022-08-17T09:47:19.691Z,97440.72
2022-08-17T09:49:57.190Z,97442.50
2022-08-17T09:52:27.259Z,97451.00
2022-08-17T09:54:56.951Z,97456.97
2022-08-17T09:57:33.983Z,97456.06
2022-08-17T10:00:25.147Z,97456.44
2022-08-17T10:03:11.179Z,97462.88
2022-08-17T10:06:00.031Z,97467.44
2022-08-17T10:08:49.767Z,97457.72
2022-08-17T10:11:33.441Z,97463.19
2022-08-17T10:14:24.068Z,97466.78
2022-08-17T10:17:49.362Z,97470.72
2022-08-17T10:20:21.555Z,97471.50
2022-08-17T10:23:08.019Z,97472.34
2022-08-17T10:25:56.742Z,97484.88
2022-08-17T10:28:30.084Z,97490.25
2022-08-17T10:31:33.549Z,97494.28
2022-08-17T10:34:16.357Z,97501.56
2022-08-17T10:37:01.994Z,97503.53
2022-08-17T10:39:50.482Z,97505.34
2022-08-17T10:42:47.867Z,97510.75
2022-08-17T10:45:20.200Z,97513.44
2022-08-17T10:48:01.339Z,97511.97
2022-08-17T10:50:51.519Z,97515.69
2022-08-17T10:53:34.596Z,97506.78
2022-08-17T10:56:14.729Z,97511.78
2022-08-17T10:59:02.043Z,97513.84
2022-08-17T11:01:33.236Z,97509.28
2022-08-17T11:04:25.086Z,97515.66
2022-08-17T11:07:13.809Z,97514.25
2022-08-17T11:10:00.200Z,97512.75
2022-08-17T11:12:36.284Z,97515.56
2022-08-17T11:15:39.717Z,97524.66
2022-08-17T11:18:25.640Z,97529.19
2022-08-17T11:21:14.636Z,97528.13
2022-08-17T11:23:48.055Z,97533.09
2022-08-17T11:26:23.621Z,97540.88
2022-08-17T11:28:53.400Z,97532.00
2022-08-17T11:31:39.291Z,97537.53
2022-08-17T11:34:27.050Z,97535.25
2022-08-17T11:37:20.120Z,97546.63
2022-08-17T11:40:14.674Z,97544.88
2022-08-17T11:42:48.954Z,97547.28
2022-08-17T11:45:55.549Z,97544.03
2022-08-17T11:48:28.398Z,97545.97
2022-08-17T11:51:07.143Z,97554.25
2022-08-17T11:53:37.931Z,97550.56
2022-08-17T11:56:33.507Z,97564.63
2022-08-17T11:59:04.879Z,97563.84
2022-08-17T12:01:51.499Z,97571.63
2022-08-17T12:04:22.573Z,97574.31
2022-08-17T12:06:54.573Z,97578.25
2022-08-17T12:09:23.225Z,97590.22
2022-08-17T12:12:12.763Z,97591.22
2022-08-17T12:17:40.434Z,97592.81
2022-08-17T12:20:25.509Z,97596.75
2022-08-17T12:23:21.665Z,97599.06
2022-08-17T12:26:12.974Z,97596.56
2022-08-17T12:28:46.337Z,97600.81
2022-08-17T12:31:17.343Z,97597.88
2022-08-17T12:33:48.647Z,97601.66
2022-08-17T12:36:20.198Z,97603.75
2022-08-17T12:38:53.150Z,97602.56
2022-08-17T12:41:42.937Z,97609.50
2022-08-17T12:44:15.866Z,97608.50
2022-08-17T12:47:17.991Z,97612.66
2022-08-17T12:49:51.762Z,97608.16
2022-08-17T12:52:24.751Z,97614.44
2022-08-17T12:54:59.885Z,97619.84
2022-08-17T12:57:34.773Z,97618.88
2022-08-17T13:00:32.045Z,97628.66
2022-08-17T13:03:09.290Z,97633.97
2022-08-17T13:05:55.093Z,97632.56
2022-08-17T13:08:44.518Z,97630.09
2022-08-17T13:11:15.591Z,97636.03
2022-08-17T13:13:45.962Z,97639.31
2022-08-17T13:16:13.935Z,97647.41
2022-08-17T13:18:45.305Z,97647.41
2022-08-17T13:21:19.280Z,97645.28
2022-08-17T13:24:08.263Z,97643.91
2022-08-17T13:26:45.588Z,97655.59
2022-08-17T13:29:38.455Z,97652.13
2022-08-17T13:32:13.372Z,97650.84
2022-08-17T13:35:12.664Z,97651.44
2022-08-17T13:37:36.596Z,97656.09
2022-08-17T13:40:10.816Z,97661.84
2022-08-17T13:42:53.028Z,97661.13
2022-08-17T13:45:36.537Z,97661.06
2022-08-17T13:48:31.733Z,97665.19
2022-08-17T13:50:59.325Z,97665.34
2022-08-17T13:53:53.619Z,97671.22
2022-08-17T13:56:39.333Z,97671.94
2022-08-17T13:59:18.507Z,97675.84
2022-08-17T14:02:11.068Z,97683.41
2022-08-17T14:04:44.065Z,97685.28
2022-08-17T14:07:12.040Z,97685.59
2022-08-17T14:10:17.827Z,97686.28
2022-08-17T14:12:48.452Z,97677.19
2022-08-17T14:15:18.491Z,97676.16
2022-08-17T14:17:46.651Z,97683.88
2022-08-17T14:20:19.114Z,97680.19
2022-08-17T14:22:49.908Z,97677.09
2022-08-17T14:25:22.616Z,97680.03
2022-08-17T14:27:53.375Z,97680.13
2022-08-17T14:30:31.238Z,97677.97
2022-08-17T14:33:04.455Z,97677.97
2022-08-17T14:35:32.527Z,97677.94
2022-08-17T14:38:00.684Z,97676.66
2022-08-17T14:40:29.086Z,97681.09
2022-08-17T14:42:57.737Z,97676.84
2022-08-17T14:45:27.402Z,97674.25
2022-08-17T14:48:05.923Z,97679.38
2022-08-17T14:50:35.542Z,97680.13
2022-08-17T14:53:04.992Z,97680.22
2022-08-17T14:55:33.361Z,97683.97
2022-08-17T14:58:01.372Z,97680.09
2022-08-17T15:00:29.483Z,97684.72
2022-08-17T15:02:59.247Z,97683.38
2022-08-17T15:05:33.934Z,97679.56
2022-08-17T15:08:02.773Z,97680.53
2022-08-17T15:10:34.309Z,97684.53
2022-08-17T15:13:02.449Z,97686.25
2022-08-17T15:15:31.052Z,97688.66
2022-08-17T15:17:59.341Z,97689.63
2022-08-17T15:20:29.412Z,97684.81
2022-08-17T15:22:58.451Z,97679.94
2022-08-17T15:25:28.010Z,97692.06
2022-08-17T15:27:56.341Z,97684.66
2022-08-17T15:30:25.061Z,97688.41
2022-08-17T15:32:56.795Z,97687.63
2022-08-17T15:35:30.537Z,97687.53
2022-08-17T15:38:08.361Z,97686.00
2022-08-17T15:40:43.444Z,97685.19
2022-08-17T15:43:24.788Z,97679.56
2022-08-17T15:46:07.006Z,97686.22
2022-08-17T15:48:35.842Z,97686.94
2022-08-17T15:51:06.951Z,97678.47
2022-08-17T15:53:35.247Z,97673.06
2022-08-17T15:56:03.408Z,97680.66
2022-08-17T15:58:34.713Z,97672.25
2022-08-17T16:01:16.671Z,97674.31
2022-08-17T16:04:04.821Z,97663.97
2022-08-17T16:06:35.359Z,97662.56
2022-08-17T16:09:03.956Z,97660.00
2022-08-17T16:11:31.972Z,97665.72
2022-08-17T16:14:00.008Z,97665.34
2022-08-17T16:16:28.617Z,97660.56
2022-08-17T16:18:59.337Z,97665.78
2022-08-17T16:21:27.683Z,97663.63
2022-08-17T16:23:58.990Z,97659.41
2022-08-17T16:26:28.599Z,97656.09
2022-08-17T16:28:57.762Z,97659.09
2022-08-17T16:31:26.138Z,97657.81
2022-08-17T16:34:15.517Z,97659.84
2022-08-17T16:36:55.598Z,97652.44
2022-08-17T16:39:28.975Z,97651.28
2022-08-17T16:42:00.686Z,97653.19
2022-08-17T16:44:31.745Z,97650.94
2022-08-17T16:47:01.059Z,97651.97
2022-08-17T16:49:36.974Z,97650.00
2022-08-17T16:52:07.779Z,97648.53
2022-08-17T16:54:38.846Z,97645.91
2022-08-17T16:57:06.915Z,97650.94
2022-08-17T16:59:40.800Z,97650.50
2022-08-17T17:02:14.771Z,97640.63
2022-08-17T17:04:52.384Z,97640.69
2022-08-17T17:07:35.880Z,97643.22
2022-08-17T17:10:11.243Z,97637.25
2022-08-17T17:13:02.208Z,97634.97
2022-08-17T17:16:06.588Z,97632.28
2022-08-17T17:18:56.248Z,97624.09
2022-08-17T17:21:31.092Z,97631.06
2022-08-17T17:24:06.677Z,97617.31
2022-08-17T17:26:40.847Z,97626.31
2022-08-17T17:29:48.354Z,97619.81
2022-08-17T17:32:32.294Z,97618.72
2022-08-17T17:35:09.616Z,97613.50
2022-08-17T17:37:37.868Z,97610.75
2022-08-17T17:40:20.788Z,97614.44
2022-08-17T17:42:50.390Z,97608.34
2022-08-17T17:45:30.647Z,97610.31
2022-08-17T17:48:01.658Z,97614.19
2022-08-17T17:51:02.805Z,97607.34
2022-08-17T17:53:49.464Z,97599.06
2022-08-17T17:56:43.223Z,97598.88
2022-08-17T17:59:50.961Z,97604.56
2022-08-17T18:02:36.511Z,97589.34
2022-08-17T18:05:31.074Z,97591.34
2022-08-17T18:08:12.312Z,97588.09
2022-08-17T18:10:53.398Z,97588.03
2022-08-17T18:13:54.761Z,97583.34
2022-08-17T18:16:23.663Z,97580.31
2022-08-17T18:18:52.263Z,97577.69
2022-08-17T18:21:26.643Z,97578.94
2022-08-17T18:23:56.311Z,97577.72
2022-08-17T18:26:38.738Z,97580.63
2022-08-17T18:29:30.000Z,97572.06
2022-08-17T18:32:20.660Z,97570.91
2022-08-17T18:34:55.244Z,97562.34
2022-08-17T18:37:36.277Z,97565.44
2022-08-17T18:40:19.397Z,97566.47
2022-08-17T18:42:56.409Z,97556.44
2022-08-17T18:45:49.450Z,97558.72
2022-08-17T18:48:20.219Z,97548.09
2022-08-17T18:50:48.273Z,97545.75
2022-08-17T18:53:34.521Z,97551.31
2022-08-17T18:56:19.868Z,97543.09
2022-08-17T18:59:21.827Z,97536.06
2022-08-17T19:02:23.226Z,97541.47
2022-08-17T19:05:11.242Z,97531.28
2022-08-17T19:07:42.450Z,97535.78
2022-08-17T19:10:14.587Z,97533.63
2022-08-17T19:12:53.441Z,97520.44
2022-08-17T19:16:11.529Z,97522.09
2022-08-17T19:18:47.741Z,97519.91
2022-08-17T19:21:31.116Z,97523.53
2022-08-17T19:24:01.815Z,97516.56
2022-08-17T19:26:54.550Z,97514.44
2022-08-17T19:29:30.888Z,97513.28
2022-08-17T19:31:59.826Z,97505.28
2022-08-17T19:34:34.068Z,97497.97
2022-08-17T19:37:31.162Z,97499.03
2022-08-17T19:40:10.790Z,97498.66
2022-08-17T19:42:56.603Z,97492.34
2022-08-17T19:45:34.660Z,97491.25
2022-08-17T19:48:18.713Z,97479.03
2022-08-17T19:51:14.033Z,97479.78
2022-08-17T19:54:11.150Z,97476.44
2022-08-17T19:56:41.957Z,97479.03
2022-08-17T19:59:47.141Z,97472.09
2022-08-17T20:02:28.414Z,97478.00
2022-08-17T20:04:59.983Z,97473.72
2022-08-17T20:07:37.330Z,97467.28
2022-08-17T20:10:14.132Z,97468.59
2022-08-17T20:12:44.854Z,97464.16
2022-08-17T20:15:25.479Z,97471.59
2022-08-17T20:17:53.863Z,97459.59
2022-08-17T20:20:21.933Z,97464.31
2022-08-17T20:23:06.080Z,97461.63
2022-08-17T20:26:06.403Z,97450.31
2022-08-17T20:28:36.174Z,97454.13
2022-08-17T20:31:40.406Z,97453.16
2022-08-17T20:34:38.140Z,97444.03
2022-08-17T20:37:15.336Z,97437.47
2022-08-17T20:39:44.616Z,97435.28
2022-08-17T20:42:21.519Z,97441.00
2022-08-17T20:44:52.656Z,97436.19
2022-08-17T20:48:18.678Z,97422.81
2022-08-17T20:50:48.331Z,97428.75
2022-08-17T20:53:48.418Z,97426.28
2022-08-17T20:56:44.158Z,97416.25
2022-08-17T20:59:24.115Z,97413.00
2022-08-17T21:02:18.689Z,97415.25
2022-08-17T21:05:45.197Z,97414.00
2022-08-17T21:08:50.550Z,97409.00
2022-08-17T21:12:03.169Z,97407.38
2022-08-17T21:14:24.794Z,97407.91
2022-08-17T21:17:23.526Z,97403.75
2022-08-17T21:20:13.274Z,97400.47
2022-08-17T21:23:02.059Z,97395.34
2022-08-17T21:26:00.143Z,97393.22
2022-08-17T21:29:00.450Z,97382.53
2022-08-17T21:31:38.263Z,97380.06
2022-08-17T21:34:27.709Z,97370.91
2022-08-17T21:36:56.397Z,97367.31
2022-08-17T21:39:34.942Z,97365.63
2022-08-17T21:42:03.230Z,97357.38
2022-08-17T21:44:37.246Z,97359.94
2022-08-17T21:47:23.708Z,97355.00
2022-08-17T21:50:14.260Z,97351.22
2022-08-17T21:52:42.378Z,97344.66
2022-08-17T21:55:20.667Z,97344.34
2022-08-17T21:58:04.963Z,97342.56
2022-08-17T22:00:42.057Z,97338.31
2022-08-17T22:03:25.147Z,97336.41
2022-08-17T22:05:53.229Z,97332.09
2022-08-17T22:08:24.550Z,97328.66
2022-08-17T22:11:01.462Z,97324.56
2022-08-17T22:13:30.141Z,97323.44
2022-08-17T22:16:28.052Z,97312.53
2022-08-17T22:18:58.773Z,97316.88
2022-08-17T22:21:27.241Z,97315.03
2022-08-17T22:24:18.489Z,97310.06
2022-08-17T22:27:04.431Z,97303.19
2022-08-17T22:29:50.249Z,97305.53
2022-08-17T22:32:42.823Z,97302.13
2022-08-17T22:35:37.788Z,97300.25
2022-08-17T22:38:20.865Z,97297.75
2022-08-17T22:40:58.291Z,97299.53
2022-08-17T22:43:27.656Z,97292.47
2022-08-17T22:46:00.186Z,97291.50
2022-08-17T22:48:29.873Z,97290.25
2022-08-17T22:51:12.372Z,97289.44
2022-08-17T22:54:03.068Z,97285.31
2022-08-17T22:56:31.254Z,97267.97
2022-08-17T22:59:00.606Z,97273.06
2022-08-17T23:01:36.216Z,97263.53
2022-08-17T23:04:12.983Z,97260.34
2022-08-17T23:06:41.926Z,97256.50
2022-08-17T23:09:10.090Z,97255.63
2022-08-17T23:11:49.255Z,97253.13
2022-08-17T23:14:20.543Z,97247.69
2022-08-17T23:16:49.838Z,97244.88
2022-08-17T23:19:20.845Z,97247.09
2022-08-17T23:21:51.421Z,97243.13
2022-08-17T23:24:28.373Z,97239.28
2022-08-17T23:26:58.691Z,97234.63
2022-08-17T23:29:30.624Z,97228.16
2022-08-17T23:32:01.643Z,97232.16
2022-08-17T23:34:29.870Z,97224.47
2022-08-17T23:36:58.102Z,97222.00
2022-08-17T23:39:28.086Z,97224.50
2022-08-17T23:42:01.658Z,97217.13
2022-08-17T23:44:29.924Z,97213.47
2022-08-17T23:46:58.216Z,97210.81
2022-08-17T23:49:29.257Z,97204.88
2022-08-17T23:51:57.447Z,97209.06
2022-08-17T23:54:28.576Z,97202.94
2022-08-17T23:56:56.668Z,97206.16
2022-08-17T23:59:24.963Z,97201.78
